createdAt,value
2019-03-17T00:01:24.247Z,99795.13
2019-03-17T00:03:50.393Z,99788.66
2019-03-17T00:06:16.238Z,99793.82
2019-03-17T00:08:42.047Z,99789.00
2019-03-17T00:11:07.947Z,99791.64
2019-03-17T00:13:33.763Z,99790.56
2019-03-17T00:15:59.596Z,99794.16
2019-03-17T00:18:25.545Z,99781.94
2019-03-17T00:20:54.495Z,99786.33
2019-03-17T00:23:20.362Z,99785.12
2019-03-17T00:25:46.221Z,99781.05
2019-03-17T00:28:12.041Z,99781.57
2019-03-17T00:30:39.607Z,99785.59
2019-03-17T00:33:05.422Z,99779.24
2019-03-17T00:35:31.291Z,99774.94
2019-03-17T00:37:57.138Z,99779.59
2019-03-17T00:40:22.979Z,99785.52
2019-03-17T00:42:48.914Z,99792.47
2019-03-17T00:45:14.954Z,99788.29
2019-03-17T00:47:42.731Z,99787.40
2019-03-17T00:50:09.753Z,99788.81
2019-03-17T00:52:35.790Z,99791.32
2019-03-17T00:55:01.828Z,99794.10
2019-03-17T00:57:28.149Z,99795.68
2019-03-17T00:59:54.089Z,99794.66
2019-03-17T01:02:19.996Z,99798.33
2019-03-17T01:04:55.643Z,99798.33
2019-03-17T01:07:14.993Z,99799.18
2019-03-17T01:09:40.810Z,99796.06
2019-03-17T01:12:06.806Z,99793.45
2019-03-17T01:14:32.646Z,99791.13
2019-03-17T01:16:58.582Z,99789.34
2019-03-17T01:19:24.603Z,99784.02
2019-03-17T01:21:50.458Z,99786.63
2019-03-17T01:24:16.291Z,99782.06
2019-03-17T01:26:42.279Z,99782.58
2019-03-17T01:29:08.140Z,99779.37
2019-03-17T01:31:34.109Z,99787.86
2019-03-17T01:34:00.013Z,99779.23
2019-03-17T01:36:25.975Z,99787.59
2019-03-17T01:38:51.896Z,99788.83
2019-03-17T01:41:17.937Z,99781.45
2019-03-17T01:43:43.888Z,99773.44
2019-03-17T01:46:09.826Z,99768.23
2019-03-17T01:48:35.680Z,99764.53
2019-03-17T01:51:01.564Z,99762.98
2019-03-17T01:53:27.455Z,99758.89
2019-03-17T01:55:53.410Z,99766.61
2019-03-17T01:58:19.405Z,99764.27
2019-03-17T02:00:45.349Z,99764.86
2019-03-17T02:03:11.317Z,99768.84
2019-03-17T02:05:37.216Z,99771.76
2019-03-17T02:08:03.066Z,99767.22
2019-03-17T02:10:29.086Z,99771.37
2019-03-17T02:12:55.026Z,99764.45
2019-03-17T02:15:21.160Z,99768.92
2019-03-17T02:17:47.044Z,99771.45
2019-03-17T02:20:12.975Z,99762.63
2019-03-17T02:22:38.919Z,99759.78
2019-03-17T02:25:05.410Z,99760.91
2019-03-17T02:27:31.234Z,99762.95
2019-03-17T02:29:57.101Z,99755.85
2019-03-17T02:32:23.047Z,99755.85
2019-03-17T02:34:50.780Z,99755.85
2019-03-17T02:37:16.713Z,99758.41
2019-03-17T02:39:42.720Z,99763.32
2019-03-17T02:42:08.675Z,99761.95
2019-03-17T02:44:34.508Z,99760.33
2019-03-17T02:47:00.353Z,99754.42
2019-03-17T02:49:26.255Z,99755.63
2019-03-17T02:51:52.196Z,99756.76
2019-03-17T02:54:18.034Z,99756.88
2019-03-17T02:56:43.929Z,99758.98
2019-03-17T02:59:09.773Z,99754.48
2019-03-17T03:01:35.736Z,99759.77
2019-03-17T03:04:01.740Z,99760.19
2019-03-17T03:06:27.694Z,99769.64
2019-03-17T03:08:53.627Z,99773.28
2019-03-17T03:11:19.532Z,99774.22
2019-03-17T03:13:45.354Z,99773.28
2019-03-17T03:16:11.306Z,99768.16
2019-03-17T03:18:37.441Z,99772.43
2019-03-17T03:21:03.381Z,99772.70
2019-03-17T03:23:29.215Z,99765.91
2019-03-17T03:25:55.064Z,99772.34
2019-03-17T03:28:21.055Z,99776.16
2019-03-17T03:30:47.013Z,99783.77
2019-03-17T03:33:12.933Z,99784.67
2019-03-17T03:35:38.991Z,99781.48
2019-03-17T03:38:04.905Z,99780.20
2019-03-17T03:40:31.132Z,99784.55
2019-03-17T03:42:57.879Z,99786.88
2019-03-17T03:45:23.890Z,99790.45
2019-03-17T03:47:50.106Z,99789.25
2019-03-17T03:50:16.259Z,99794.33
2019-03-17T03:52:42.117Z,99790.05
2019-03-17T03:55:08.451Z,99793.13
2019-03-17T03:57:34.565Z,99791.17
2019-03-17T04:00:02.128Z,99797.53
2019-03-17T04:02:28.178Z,99796.31
2019-03-17T04:04:54.072Z,99807.44
2019-03-17T04:07:19.896Z,99799.02
2019-03-17T04:09:45.945Z,99803.84
2019-03-17T04:12:11.903Z,99810.47
2019-03-17T04:14:37.779Z,99797.84
2019-03-17T04:17:03.606Z,99796.98
2019-03-17T04:19:29.549Z,99802.73
2019-03-17T04:21:55.413Z,99805.20
2019-03-17T04:24:21.250Z,99807.09
2019-03-17T04:26:47.085Z,99803.48
2019-03-17T04:29:13.084Z,99802.23
2019-03-17T04:31:38.897Z,99802.95
2019-03-17T04:34:04.820Z,99799.16
2019-03-17T04:36:40.056Z,99803.22
2019-03-17T04:38:58.543Z,99798.44
2019-03-17T04:41:24.475Z,99795.31
2019-03-17T04:43:50.354Z,99796.56
2019-03-17T04:46:16.958Z,99799.62
2019-03-17T04:48:43.129Z,99797.13
2019-03-17T04:51:09.301Z,99803.58
2019-03-17T04:53:35.113Z,99796.59
2019-03-17T04:56:00.956Z,99795.23
2019-03-17T04:58:26.882Z,99796.23
2019-03-17T05:00:52.863Z,99796.83
2019-03-17T05:03:18.841Z,99798.19
2019-03-17T05:05:44.735Z,99802.67
2019-03-17T05:08:10.566Z,99804.06
2019-03-17T05:10:36.621Z,99796.61
2019-03-17T05:13:02.673Z,99797.53
2019-03-17T05:15:28.521Z,99803.96
2019-03-17T05:17:54.607Z,99797.67
2019-03-17T05:20:20.412Z,99799.41
2019-03-17T05:22:46.393Z,99797.41
2019-03-17T05:25:12.361Z,99798.88
2019-03-17T05:27:38.593Z,99805.55
2019-03-17T05:30:07.670Z,99803.47
2019-03-17T05:32:33.507Z,99798.22
2019-03-17T05:34:59.341Z,99807.42
2019-03-17T05:37:25.247Z,99803.73
2019-03-17T05:39:51.176Z,99794.63
2019-03-17T05:42:17.145Z,99800.23
2019-03-17T05:44:42.962Z,99795.06
2019-03-17T05:47:08.807Z,99799.88
2019-03-17T05:49:34.716Z,99799.88
2019-03-17T05:52:00.564Z,99804.23
2019-03-17T05:54:26.380Z,99810.83
2019-03-17T05:56:52.341Z,99809.80
2019-03-17T05:59:19.631Z,99808.08
2019-03-17T06:01:45.698Z,99811.88
2019-03-17T06:04:11.551Z,99810.88
2019-03-17T06:06:40.979Z,99806.17
2019-03-17T06:09:06.996Z,99807.37
2019-03-17T06:11:32.851Z,99814.20
2019-03-17T06:13:58.813Z,99807.64
2019-03-17T06:16:24.692Z,99810.71
2019-03-17T06:18:50.649Z,99815.56
2019-03-17T06:21:16.490Z,99815.09
2019-03-17T06:23:42.374Z,99817.10
2019-03-17T06:26:08.233Z,99820.56
2019-03-17T06:28:34.290Z,99814.58
2019-03-17T06:31:00.243Z,99821.32
2019-03-17T06:33:26.077Z,99818.61
2019-03-17T06:35:52.008Z,99824.67
2019-03-17T06:38:18.128Z,99821.03
2019-03-17T06:40:43.945Z,99828.39
2019-03-17T06:43:09.880Z,99823.66
2019-03-17T06:45:35.882Z,99824.80
2019-03-17T06:48:01.720Z,99831.33
2019-03-17T06:50:27.560Z,99833.16
2019-03-17T06:52:53.848Z,99835.34
2019-03-17T06:55:19.807Z,99838.11
2019-03-17T06:57:45.640Z,99836.79
2019-03-17T07:00:12.749Z,99839.39
2019-03-17T07:02:38.593Z,99841.95
2019-03-17T07:05:06.037Z,99841.17
2019-03-17T07:07:43.377Z,99841.13
2019-03-17T07:09:59.838Z,99839.25
2019-03-17T07:12:25.642Z,99840.74
2019-03-17T07:14:51.721Z,99832.13
2019-03-17T07:17:19.352Z,99835.61
2019-03-17T07:19:45.374Z,99836.03
2019-03-17T07:22:12.013Z,99842.19
2019-03-17T07:24:37.958Z,99837.59
2019-03-17T07:27:03.844Z,99845.89
2019-03-17T07:29:29.696Z,99847.23
2019-03-17T07:31:55.540Z,99844.58
2019-03-17T07:34:21.581Z,99835.89
2019-03-17T07:36:47.509Z,99839.02
2019-03-17T07:39:13.335Z,99848.57
2019-03-17T07:41:39.222Z,99842.52
2019-03-17T07:44:05.255Z,99849.33
2019-03-17T07:46:31.111Z,99849.99
2019-03-17T07:48:56.973Z,99848.58
2019-03-17T07:51:22.802Z,99846.05
2019-03-17T07:53:48.693Z,99854.64
2019-03-17T07:56:14.545Z,99854.64
2019-03-17T07:58:40.481Z,99854.48
2019-03-17T08:01:06.346Z,99861.34
2019-03-17T08:03:32.292Z,99854.72
2019-03-17T08:05:58.259Z,99854.54
2019-03-17T08:08:24.190Z,99845.83
2019-03-17T08:10:49.966Z,99843.86
2019-03-17T08:13:15.808Z,99841.25
2019-03-17T08:15:41.754Z,99811.33
2019-03-17T08:18:07.585Z,99829.48
2019-03-17T08:20:33.437Z,99841.37
2019-03-17T08:22:59.339Z,99843.23
2019-03-17T08:25:25.199Z,99842.97
2019-03-17T08:27:51.035Z,99833.59
2019-03-17T08:30:17.046Z,99833.59
2019-03-17T08:32:42.888Z,99831.53
2019-03-17T08:35:09.205Z,99826.34
2019-03-17T08:37:35.109Z,99824.92
2019-03-17T08:40:01.171Z,99820.74
2019-03-17T08:42:27.023Z,99830.73
2019-03-17T08:44:53.020Z,99827.03
2019-03-17T08:47:18.969Z,99832.90
2019-03-17T08:49:44.796Z,99828.37
2019-03-17T08:52:10.766Z,99830.11
2019-03-17T08:54:36.604Z,99828.25
2019-03-17T08:57:02.622Z,99833.41
2019-03-17T08:59:28.479Z,99837.41
2019-03-17T09:01:54.313Z,99825.23
2019-03-17T09:04:20.270Z,99833.72
2019-03-17T09:06:49.406Z,99830.16
2019-03-17T09:09:17.354Z,99826.13
2019-03-17T09:11:43.724Z,99820.32
2019-03-17T09:14:09.614Z,99820.34
2019-03-17T09:16:35.623Z,99814.75
2019-03-17T09:19:01.576Z,99810.31
2019-03-17T09:21:27.392Z,99811.20
2019-03-17T09:23:53.379Z,99814.64
2019-03-17T09:26:19.318Z,99805.30
2019-03-17T09:28:45.170Z,99801.32
2019-03-17T09:31:11.016Z,99803.75
2019-03-17T09:33:36.862Z,99805.55
2019-03-17T09:36:02.843Z,99797.88
2019-03-17T09:38:28.806Z,99798.42
2019-03-17T09:40:54.651Z,99798.11
2019-03-17T09:43:21.520Z,99795.48
2019-03-17T09:45:47.315Z,99797.06
2019-03-17T09:48:13.191Z,99793.36
2019-03-17T09:50:39.641Z,99795.05
2019-03-17T09:53:05.572Z,99789.02
2019-03-17T09:55:31.407Z,99796.73
2019-03-17T09:57:57.271Z,99792.81
2019-03-17T10:00:23.136Z,99792.02
2019-03-17T10:02:48.999Z,99790.56
2019-03-17T10:05:15.043Z,99786.92
2019-03-17T10:07:40.999Z,99783.38
2019-03-17T10:10:16.285Z,99785.59
2019-03-17T10:12:42.203Z,99780.44
2019-03-17T10:15:11.873Z,99782.29
2019-03-17T10:17:37.817Z,99777.32
2019-03-17T10:20:12.310Z,99776.55
2019-03-17T10:22:40.681Z,99770.36
2019-03-17T10:25:08.642Z,99776.47
2019-03-17T10:27:34.438Z,99774.20
2019-03-17T10:30:00.731Z,99769.55
2019-03-17T10:32:26.568Z,99769.70
2019-03-17T10:34:52.457Z,99764.98
2019-03-17T10:37:18.455Z,99764.30
2019-03-17T10:39:44.317Z,99768.73
2019-03-17T10:42:10.147Z,99756.36
2019-03-17T10:44:36.053Z,99755.17
2019-03-17T10:47:01.888Z,99761.86
2019-03-17T10:49:27.706Z,99758.83
2019-03-17T10:51:53.581Z,99749.84
2019-03-17T10:54:19.512Z,99744.21
2019-03-17T10:56:45.404Z,99748.72
2019-03-17T10:59:11.257Z,99741.36
2019-03-17T11:01:37.087Z,99737.08
2019-03-17T11:04:03.331Z,99732.19
2019-03-17T11:06:29.259Z,99728.08
2019-03-17T11:08:55.143Z,99723.72
2019-03-17T11:11:21.025Z,99715.05
2019-03-17T11:13:46.853Z,99713.88
2019-03-17T11:16:12.706Z,99706.78
2019-03-17T11:18:39.608Z,99704.03
2019-03-17T11:21:05.451Z,99699.73
2019-03-17T11:23:31.290Z,99706.80
2019-03-17T11:25:57.173Z,99691.35
2019-03-17T11:28:23.116Z,99696.73
2019-03-17T11:30:56.727Z,99686.95
2019-03-17T11:33:22.571Z,99684.56
2019-03-17T11:35:48.489Z,99681.13
2019-03-17T11:38:14.336Z,99681.10
2019-03-17T11:40:40.170Z,99674.63
2019-03-17T11:43:06.962Z,99672.08
2019-03-17T11:45:32.893Z,99665.92
2019-03-17T11:47:58.741Z,99664.81
2019-03-17T11:50:24.811Z,99665.29
2019-03-17T11:52:50.858Z,99666.32
2019-03-17T11:55:16.940Z,99659.85
2019-03-17T11:57:42.905Z,99657.27
2019-03-17T12:00:18.860Z,99648.69
2019-03-17T12:02:44.838Z,99653.73
2019-03-17T12:05:11.098Z,99645.33
2019-03-17T12:07:37.264Z,99645.33
2019-03-17T12:10:09.617Z,99645.29
2019-03-17T12:12:35.448Z,99638.99
2019-03-17T12:15:01.614Z,99639.14
2019-03-17T12:17:30.978Z,99635.09
2019-03-17T12:19:56.994Z,99638.05
2019-03-17T12:22:22.870Z,99637.33
2019-03-17T12:24:48.725Z,99631.50
2019-03-17T12:27:14.573Z,99624.66
2019-03-17T12:29:40.530Z,99626.23
2019-03-17T12:32:06.521Z,99623.33
2019-03-17T12:34:32.460Z,99623.33
2019-03-17T12:36:58.305Z,99626.70
2019-03-17T12:39:24.374Z,99616.46
2019-03-17T12:41:50.214Z,99612.91
2019-03-17T12:44:16.054Z,99622.42
2019-03-17T12:46:42.027Z,99624.17
2019-03-17T12:49:09.627Z,99621.30
2019-03-17T12:51:35.552Z,99631.88
2019-03-17T12:54:03.493Z,99621.12
2019-03-17T12:56:31.645Z,99621.77
2019-03-17T12:58:57.816Z,99612.95
2019-03-17T13:01:23.794Z,99609.02
2019-03-17T13:03:49.741Z,99606.89
2019-03-17T13:06:15.856Z,99600.11
2019-03-17T13:08:41.929Z,99602.49
2019-03-17T13:11:07.881Z,99599.03
2019-03-17T13:13:34.001Z,99592.97
2019-03-17T13:16:01.210Z,99590.17
2019-03-17T13:18:27.120Z,99593.64
2019-03-17T13:20:53.196Z,99582.06
2019-03-17T13:23:21.646Z,99581.91
2019-03-17T13:25:49.788Z,99586.58
2019-03-17T13:28:15.758Z,99578.18
2019-03-17T13:30:43.616Z,99576.33
2019-03-17T13:33:09.704Z,99566.75
2019-03-17T13:35:36.886Z,99558.94
2019-03-17T13:38:03.071Z,99553.59
2019-03-17T13:40:30.211Z,99553.71
2019-03-17T13:42:56.328Z,99543.31
2019-03-17T13:45:22.348Z,99538.23
2019-03-17T13:47:48.424Z,99541.00
2019-03-17T13:50:19.606Z,99533.91
2019-03-17T13:52:45.690Z,99530.11
2019-03-17T13:55:11.610Z,99526.70
2019-03-17T13:57:38.153Z,99515.34
2019-03-17T14:00:07.906Z,99512.73
2019-03-17T14:02:33.766Z,99516.22
2019-03-17T14:04:59.730Z,99510.34
2019-03-17T14:07:25.715Z,99506.18
2019-03-17T14:09:51.577Z,99506.91
2019-03-17T14:12:17.442Z,99505.47
2019-03-17T14:14:43.419Z,99510.81
2019-03-17T14:17:09.252Z,99504.56
2019-03-17T14:19:35.074Z,99492.05
2019-03-17T14:22:01.051Z,99492.44
2019-03-17T14:24:26.936Z,99498.18
2019-03-17T14:26:52.771Z,99482.41
2019-03-17T14:29:18.619Z,99479.42
2019-03-17T14:31:44.491Z,99485.72
2019-03-17T14:34:10.426Z,99477.42
2019-03-17T14:36:36.468Z,99477.71
2019-03-17T14:39:04.825Z,99464.12
2019-03-17T14:41:30.921Z,99464.12
2019-03-17T14:43:56.737Z,99455.59
2019-03-17T14:46:22.679Z,99450.04
2019-03-17T14:48:48.534Z,99452.62
2019-03-17T14:51:14.357Z,99453.80
2019-03-17T14:53:40.262Z,99453.12
2019-03-17T14:56:06.244Z,99451.72
2019-03-17T14:58:32.082Z,99447.17
2019-03-17T15:00:58.003Z,99443.27
2019-03-17T15:03:23.846Z,99440.82
2019-03-17T15:05:51.626Z,99442.94
2019-03-17T15:08:17.503Z,99444.73
2019-03-17T15:10:46.830Z,99438.81
2019-03-17T15:13:12.677Z,99438.38
2019-03-17T15:15:38.532Z,99443.38
2019-03-17T15:18:04.357Z,99437.92
2019-03-17T15:20:30.208Z,99438.37
2019-03-17T15:22:56.168Z,99437.53
2019-03-17T15:25:22.037Z,99440.00
2019-03-17T15:27:47.961Z,99436.00
2019-03-17T15:30:19.811Z,99439.41
2019-03-17T15:32:45.748Z,99437.66
2019-03-17T15:35:13.419Z,99432.78
2019-03-17T15:37:39.634Z,99431.09
2019-03-17T15:40:11.000Z,99427.26
2019-03-17T15:42:36.899Z,99432.89
2019-03-17T15:45:05.727Z,99432.68
2019-03-17T15:47:34.554Z,99427.38
2019-03-17T15:50:00.638Z,99444.28
2019-03-17T15:52:26.492Z,99428.59
2019-03-17T15:54:52.322Z,99423.50
2019-03-17T15:57:18.153Z,99424.66
2019-03-17T15:59:44.061Z,99419.58
2019-03-17T16:02:09.961Z,99421.43
2019-03-17T16:04:35.806Z,99417.88
2019-03-17T16:07:02.114Z,99417.06
2019-03-17T16:09:28.722Z,99424.80
2019-03-17T16:11:58.449Z,99423.56
2019-03-17T16:14:24.286Z,99417.47
2019-03-17T16:16:50.281Z,99419.34
2019-03-17T16:19:16.206Z,99414.09
2019-03-17T16:21:42.092Z,99425.16
2019-03-17T16:24:07.997Z,99419.63
2019-03-17T16:26:33.829Z,99414.78
2019-03-17T16:28:59.767Z,99416.04
2019-03-17T16:31:25.597Z,99415.42
2019-03-17T16:33:51.544Z,99414.47
2019-03-17T16:36:17.372Z,99416.28
2019-03-17T16:38:43.218Z,99409.58
2019-03-17T16:41:09.092Z,99410.31
2019-03-17T16:43:35.133Z,99403.77
2019-03-17T16:46:01.223Z,99404.17
2019-03-17T16:48:27.056Z,99407.84
2019-03-17T16:50:52.894Z,99414.13
2019-03-17T16:53:18.839Z,99403.60
2019-03-17T16:55:44.693Z,99397.63
2019-03-17T16:58:10.622Z,99396.30
2019-03-17T17:00:36.710Z,99395.17
2019-03-17T17:03:02.796Z,99382.34
2019-03-17T17:05:35.046Z,99393.34
2019-03-17T17:08:01.256Z,99383.63
2019-03-17T17:10:28.229Z,99391.33
2019-03-17T17:12:54.322Z,99397.34
2019-03-17T17:15:23.333Z,99390.64
2019-03-17T17:17:49.642Z,99386.24
2019-03-17T17:20:18.120Z,99389.38
2019-03-17T17:22:44.196Z,99394.42
2019-03-17T17:25:10.729Z,99388.33
2019-03-17T17:27:36.585Z,99382.94
2019-03-17T17:30:06.083Z,99385.94
2019-03-17T17:32:33.456Z,99385.73
2019-03-17T17:34:59.306Z,99392.42
2019-03-17T17:37:25.199Z,99398.28
2019-03-17T17:39:51.036Z,99392.88
2019-03-17T17:42:16.874Z,99387.41
2019-03-17T17:44:42.823Z,99379.84
2019-03-17T17:47:08.719Z,99384.59
2019-03-17T17:49:34.656Z,99377.22
2019-03-17T17:52:02.592Z,99373.30
2019-03-17T17:54:28.355Z,99367.39
2019-03-17T17:56:54.648Z,99371.83
2019-03-17T17:59:20.468Z,99371.23
2019-03-17T18:01:46.313Z,99373.50
2019-03-17T18:04:12.269Z,99371.39
2019-03-17T18:06:38.290Z,99368.21
2019-03-17T18:09:05.730Z,99362.39
2019-03-17T18:11:31.637Z,99360.09
2019-03-17T18:13:57.521Z,99361.70
2019-03-17T18:16:23.465Z,99358.20
2019-03-17T18:18:49.358Z,99356.23
2019-03-17T18:21:15.200Z,99351.62
2019-03-17T18:23:41.061Z,99355.55
2019-03-17T18:26:07.134Z,99353.16
2019-03-17T18:28:33.110Z,99355.97
2019-03-17T18:30:59.155Z,99355.33
2019-03-17T18:33:25.152Z,99351.61
2019-03-17T18:35:50.998Z,99358.34
2019-03-17T18:38:16.896Z,99352.70
2019-03-17T18:40:42.785Z,99352.70
2019-03-17T18:43:08.748Z,99352.94
2019-03-17T18:45:34.695Z,99352.25
2019-03-17T18:48:00.773Z,99355.89
2019-03-17T18:50:26.818Z,99348.70
2019-03-17T18:52:52.758Z,99348.41
2019-03-17T18:55:18.849Z,99352.48
2019-03-17T18:57:44.905Z,99355.70
2019-03-17T19:00:17.869Z,99367.75
2019-03-17T19:02:44.037Z,99355.33
2019-03-17T19:05:11.974Z,99362.20
2019-03-17T19:07:37.936Z,99360.09
2019-03-17T19:10:06.664Z,99354.00
2019-03-17T19:12:44.622Z,99352.56
2019-03-17T19:15:07.723Z,99347.38
2019-03-17T19:17:33.683Z,99348.95
2019-03-17T19:19:59.824Z,99352.56
2019-03-17T19:22:25.642Z,99349.90
2019-03-17T19:24:51.620Z,99345.06
2019-03-17T19:27:17.574Z,99342.05
2019-03-17T19:29:43.421Z,99337.21
2019-03-17T19:32:09.391Z,99333.91
2019-03-17T19:34:35.314Z,99333.91
2019-03-17T19:37:01.183Z,99335.82
2019-03-17T19:39:27.198Z,99331.14
2019-03-17T19:41:53.150Z,99335.28
2019-03-17T19:44:19.013Z,99330.92
2019-03-17T19:46:44.856Z,99328.55
2019-03-17T19:49:10.940Z,99331.22
2019-03-17T19:51:36.893Z,99331.29
2019-03-17T19:54:03.060Z,99328.63
2019-03-17T19:56:29.917Z,99327.86
2019-03-17T19:58:55.745Z,99329.27
2019-03-17T20:01:21.578Z,99320.06
2019-03-17T20:03:47.447Z,99320.73
2019-03-17T20:06:13.287Z,99320.23
2019-03-17T20:08:39.233Z,99317.27
2019-03-17T20:11:06.642Z,99323.35
2019-03-17T20:13:32.493Z,99321.63
2019-03-17T20:15:58.365Z,99319.16
2019-03-17T20:18:24.197Z,99318.91
2019-03-17T20:20:50.440Z,99324.06
2019-03-17T20:23:21.314Z,99327.27
2019-03-17T20:25:48.012Z,99322.53
2019-03-17T20:28:13.798Z,99328.83
2019-03-17T20:30:39.764Z,99328.83
2019-03-17T20:33:05.596Z,99329.13
2019-03-17T20:35:31.543Z,99331.27
2019-03-17T20:37:57.540Z,99332.68
2019-03-17T20:40:23.616Z,99319.25
2019-03-17T20:42:49.561Z,99333.94
2019-03-17T20:45:15.657Z,99338.90
2019-03-17T20:47:42.015Z,99335.36
2019-03-17T20:50:16.159Z,99334.38
2019-03-17T20:52:42.236Z,99330.68
2019-03-17T20:55:09.542Z,99328.66
2019-03-17T20:57:35.770Z,99333.35
2019-03-17T21:00:04.565Z,99326.48
2019-03-17T21:02:30.619Z,99335.12
2019-03-17T21:04:58.054Z,99331.21
2019-03-17T21:07:24.141Z,99331.06
2019-03-17T21:09:51.418Z,99331.47
2019-03-17T21:12:17.920Z,99334.64
2019-03-17T21:14:44.035Z,99328.00
2019-03-17T21:17:10.094Z,99326.22
2019-03-17T21:19:36.215Z,99316.63
2019-03-17T21:22:02.273Z,99316.21
2019-03-17T21:24:30.255Z,99315.58
2019-03-17T21:26:57.337Z,99313.73
2019-03-17T21:29:25.222Z,99310.42
2019-03-17T21:31:51.162Z,99308.27
2019-03-17T21:34:17.091Z,99311.69
2019-03-17T21:36:42.928Z,99309.81
2019-03-17T21:39:08.872Z,99309.98
2019-03-17T21:41:34.867Z,99305.75
2019-03-17T21:44:00.821Z,99301.99
2019-03-17T21:46:26.659Z,99298.82
2019-03-17T21:48:52.549Z,99292.79
2019-03-17T21:51:18.360Z,99292.63
2019-03-17T21:53:44.183Z,99285.85
2019-03-17T21:56:10.064Z,99288.87
2019-03-17T21:58:35.896Z,99281.61
2019-03-17T22:01:01.744Z,99273.66
2019-03-17T22:03:27.634Z,99265.86
2019-03-17T22:05:53.570Z,99272.95
2019-03-17T22:08:19.409Z,99272.08
2019-03-17T22:10:45.300Z,99267.78
2019-03-17T22:13:11.118Z,99268.74
2019-03-17T22:15:36.947Z,99262.39
2019-03-17T22:18:03.130Z,99260.84
2019-03-17T22:20:29.059Z,99256.55
2019-03-17T22:22:54.900Z,99255.93
2019-03-17T22:25:20.839Z,99251.86
2019-03-17T22:27:46.690Z,99244.59
2019-03-17T22:30:16.356Z,99251.06
2019-03-17T22:32:42.317Z,99251.15
2019-03-17T22:35:08.903Z,99248.73
2019-03-17T22:37:34.997Z,99248.11
2019-03-17T22:40:01.094Z,99246.14
2019-03-17T22:42:26.988Z,99242.71
2019-03-17T22:44:52.863Z,99235.09
2019-03-17T22:47:18.826Z,99230.16
2019-03-17T22:49:44.742Z,99221.20
2019-03-17T22:52:11.079Z,99211.49
2019-03-17T22:54:36.933Z,99205.88
2019-03-17T22:57:03.696Z,99205.64
2019-03-17T22:59:29.621Z,99206.52
2019-03-17T23:01:55.436Z,99214.25
2019-03-17T23:04:22.245Z,99212.81
2019-03-17T23:06:48.359Z,99216.95
2019-03-17T23:09:14.359Z,99214.95
2019-03-17T23:11:40.210Z,99204.63
2019-03-17T23:14:06.297Z,99206.50
2019-03-17T23:16:32.195Z,99199.56
2019-03-17T23:19:01.792Z,99203.30
2019-03-17T23:21:27.658Z,99198.79
2019-03-17T23:23:53.490Z,99202.98
2019-03-17T23:26:19.373Z,99194.02
2019-03-17T23:28:45.296Z,99187.39
2019-03-17T23:31:11.233Z,99190.53
2019-03-17T23:33:37.176Z,99193.18
2019-03-17T23:36:03.148Z,99193.55
2019-03-17T23:38:28.988Z,99181.75
2019-03-17T23:40:54.865Z,99179.73
2019-03-17T23:43:20.679Z,99162.01
2019-03-17T23:45:46.537Z,99174.52
2019-03-17T23:48:12.526Z,99174.98
2019-03-17T23:50:38.378Z,99159.91
2019-03-17T23:53:04.204Z,99173.73
2019-03-17T23:55:30.252Z,99163.59
2019-03-17T23:57:56.223Z,99161.86
